sensor_id;sensor_type;location;lat;lon;timestamp;P1;durP1;ratioP1;P2;durP2;ratioP2
6111;SDS011;3086;48.802;9.394;2022-10-04T00:00:23;11.70;;;7.23;;
6111;SDS011;3086;48.802;9.394;2022-10-04T00:03:48;7.97;;;5.93;;
6111;SDS011;3086;48.802;9.394;2022-10-04T00:07:15;13.60;;;6.63;;
6111;SDS011;3086;48.802;9.394;2022-10-04T00:10:39;10.30;;;6.17;;
6111;SDS011;3086;48.802;9.394;2022-10-04T00:14:03;8.70;;;6.20;;
6111;SDS011;3086;48.802;9.394;2022-10-04T00:17:26;7.23;;;6.17;;
6111;SDS011;3086;48.802;9.394;2022-10-04T00:24:35;7.53;;;5.90;;
6111;SDS011;3086;48.802;9.394;2022-10-04T00:28:22;8.10;;;5.90;;
6111;SDS011;3086;48.802;9.394;2022-10-04T00:35:47;7.67;;;6.00;;
6111;SDS011;3086;48.802;9.394;2022-10-04T00:39:25;11.03;;;6.27;;
6111;SDS011;3086;48.802;9.394;2022-10-04T00:42:59;9.10;;;6.07;;
6111;SDS011;3086;48.802;9.394;2022-10-04T00:46:23;9.80;;;6.00;;
6111;SDS011;3086;48.802;9.394;2022-10-04T00:49:48;6.00;;;5.40;;
6111;SDS011;3086;48.802;9.394;2022-10-04T00:53:18;6.87;;;5.70;;
6111;SDS011;3086;48.802;9.394;2022-10-04T00:56:58;9.93;;;5.70;;
6111;SDS011;3086;48.802;9.394;2022-10-04T01:00:23;6.60;;;5.90;;
6111;SDS011;3086;48.802;9.394;2022-10-04T01:03:44;7.30;;;5.30;;
6111;SDS011;3086;48.802;9.394;2022-10-04T01:07:07;6.37;;;5.50;;
6111;SDS011;3086;48.802;9.394;2022-10-04T01:10:30;10.47;;;5.87;;
6111;SDS011;3086;48.802;9.394;2022-10-04T01:13:55;10.73;;;6.03;;
6111;SDS011;3086;48.802;9.394;2022-10-04T01:17:18;7.37;;;6.13;;
6111;SDS011;3086;48.802;9.394;2022-10-04T01:20:48;10.20;;;5.60;;
6111;SDS011;3086;48.802;9.394;2022-10-04T01:24:20;6.60;;;5.53;;
6111;SDS011;3086;48.802;9.394;2022-10-04T01:27:42;7.60;;;5.87;;
6111;SDS011;3086;48.802;9.394;2022-10-04T01:31:04;6.47;;;5.40;;
6111;SDS011;3086;48.802;9.394;2022-10-04T01:34:26;6.37;;;5.73;;
6111;SDS011;3086;48.802;9.394;2022-10-04T01:37:49;7.50;;;5.77;;
6111;SDS011;3086;48.802;9.394;2022-10-04T01:41:13;8.23;;;5.93;;
6111;SDS011;3086;48.802;9.394;2022-10-04T01:44:37;8.17;;;5.80;;
6111;SDS011;3086;48.802;9.394;2022-10-04T01:48:00;6.53;;;5.23;;
6111;SDS011;3086;48.802;9.394;2022-10-04T01:51:23;6.50;;;5.27;;
6111;SDS011;3086;48.802;9.394;2022-10-04T01:54:47;6.83;;;5.43;;
6111;SDS011;3086;48.802;9.394;2022-10-04T01:58:12;8.03;;;5.33;;
6111;SDS011;3086;48.802;9.394;2022-10-04T02:01:37;10.40;;;5.30;;
6111;SDS011;3086;48.802;9.394;2022-10-04T02:05:01;9.20;;;6.20;;
6111;SDS011;3086;48.802;9.394;2022-10-04T02:08:25;6.63;;;4.83;;
6111;SDS011;3086;48.802;9.394;2022-10-04T02:11:48;7.07;;;5.13;;
6111;SDS011;3086;48.802;9.394;2022-10-04T02:15:13;5.60;;;5.07;;
6111;SDS011;3086;48.802;9.394;2022-10-04T02:18:35;7.07;;;5.30;;
6111;SDS011;3086;48.802;9.394;2022-10-04T02:21:58;8.93;;;5.00;;
6111;SDS011;3086;48.802;9.394;2022-10-04T02:25:21;5.93;;;5.20;;
6111;SDS011;3086;48.802;9.394;2022-10-04T02:28:45;7.63;;;5.23;;
6111;SDS011;3086;48.802;9.394;2022-10-04T02:32:10;6.17;;;5.30;;
6111;SDS011;3086;48.802;9.394;2022-10-04T02:35:51;8.80;;;5.20;;
6111;SDS011;3086;48.802;9.394;2022-10-04T02:39:13;7.27;;;5.27;;
6111;SDS011;3086;48.802;9.394;2022-10-04T02:42:37;6.37;;;4.50;;
6111;SDS011;3086;48.802;9.394;2022-10-04T02:46:01;7.67;;;5.33;;
6111;SDS011;3086;48.802;9.394;2022-10-04T02:49:28;7.93;;;5.30;;
6111;SDS011;3086;48.802;9.394;2022-10-04T02:52:54;8.27;;;5.13;;
6111;SDS011;3086;48.802;9.394;2022-10-04T02:56:17;7.97;;;5.40;;
6111;SDS011;3086;48.802;9.394;2022-10-04T02:59:39;9.77;;;5.47;;
6111;SDS011;3086;48.802;9.394;2022-10-04T03:03:18;9.57;;;6.00;;
6111;SDS011;3086;48.802;9.394;2022-10-04T03:06:43;5.13;;;4.63;;
6111;SDS011;3086;48.802;9.394;2022-10-04T03:10:06;7.70;;;5.77;;
6111;SDS011;3086;48.802;9.394;2022-10-04T03:13:30;10.37;;;5.80;;
6111;SDS011;3086;48.802;9.394;2022-10-04T03:16:54;6.40;;;5.10;;
6111;SDS011;3086;48.802;9.394;2022-10-04T03:20:16;6.17;;;4.77;;
6111;SDS011;3086;48.802;9.394;2022-10-04T03:23:41;7.50;;;4.70;;
6111;SDS011;3086;48.802;9.394;2022-10-04T03:27:04;6.47;;;4.90;;
6111;SDS011;3086;48.802;9.394;2022-10-04T03:30:27;6.27;;;4.63;;
6111;SDS011;3086;48.802;9.394;2022-10-04T03:33:49;6.67;;;5.10;;
6111;SDS011;3086;48.802;9.394;2022-10-04T03:37:11;7.13;;;5.47;;
6111;SDS011;3086;48.802;9.394;2022-10-04T03:40:36;9.57;;;5.60;;
6111;SDS011;3086;48.802;9.394;2022-10-04T03:44:02;8.03;;;5.20;;
6111;SDS011;3086;48.802;9.394;2022-10-04T03:47:24;7.13;;;5.20;;
6111;SDS011;3086;48.802;9.394;2022-10-04T03:50:47;7.53;;;5.13;;
6111;SDS011;3086;48.802;9.394;2022-10-04T03:54:09;9.40;;;5.80;;
6111;SDS011;3086;48.802;9.394;2022-10-04T03:57:36;7.67;;;5.73;;
6111;SDS011;3086;48.802;9.394;2022-10-04T04:01:03;6.80;;;5.50;;
6111;SDS011;3086;48.802;9.394;2022-10-04T04:04:35;9.97;;;6.00;;
6111;SDS011;3086;48.802;9.394;2022-10-04T04:08:02;6.97;;;5.23;;
6111;SDS011;3086;48.802;9.394;2022-10-04T04:11:27;9.53;;;5.40;;
6111;SDS011;3086;48.802;9.394;2022-10-04T04:14:51;10.17;;;5.10;;
6111;SDS011;3086;48.802;9.394;2022-10-04T04:18:14;5.40;;;4.70;;
6111;SDS011;3086;48.802;9.394;2022-10-04T04:21:37;5.17;;;4.47;;
6111;SDS011;3086;48.802;9.394;2022-10-04T04:24:59;6.60;;;4.80;;
6111;SDS011;3086;48.802;9.394;2022-10-04T04:28:23;5.13;;;4.63;;
6111;SDS011;3086;48.802;9.394;2022-10-04T04:31:49;7.13;;;4.73;;
6111;SDS011;3086;48.802;9.394;2022-10-04T04:35:20;6.40;;;4.83;;
6111;SDS011;3086;48.802;9.394;2022-10-04T04:38:43;5.47;;;4.93;;
6111;SDS011;3086;48.802;9.394;2022-10-04T04:42:19;7.17;;;5.47;;
6111;SDS011;3086;48.802;9.394;2022-10-04T04:45:42;5.90;;;5.27;;
6111;SDS011;3086;48.802;9.394;2022-10-04T04:49:06;10.23;;;5.90;;
6111;SDS011;3086;48.802;9.394;2022-10-04T04:52:28;6.60;;;5.90;;
6111;SDS011;3086;48.802;9.394;2022-10-04T04:55:51;7.40;;;5.13;;
6111;SDS011;3086;48.802;9.394;2022-10-04T04:59:16;8.37;;;5.47;;
6111;SDS011;3086;48.802;9.394;2022-10-04T05:02:37;7.57;;;5.90;;
6111;SDS011;3086;48.802;9.394;2022-10-04T05:06:21;5.83;;;5.00;;
6111;SDS011;3086;48.802;9.394;2022-10-04T05:09:44;6.57;;;5.07;;
6111;SDS011;3086;48.802;9.394;2022-10-04T05:13:07;5.43;;;4.93;;
6111;SDS011;3086;48.802;9.394;2022-10-04T05:16:31;5.77;;;4.63;;
6111;SDS011;3086;48.802;9.394;2022-10-04T05:19:59;9.33;;;5.60;;
6111;SDS011;3086;48.802;9.394;2022-10-04T05:23:23;6.63;;;5.00;;
6111;SDS011;3086;48.802;9.394;2022-10-04T05:26:47;11.93;;;5.30;;
6111;SDS011;3086;48.802;9.394;2022-10-04T05:30:12;9.50;;;5.53;;
6111;SDS011;3086;48.802;9.394;2022-10-04T05:33:37;9.37;;;5.57;;
6111;SDS011;3086;48.802;9.394;2022-10-04T05:40:47;8.90;;;5.47;;
6111;SDS011;3086;48.802;9.394;2022-10-04T05:44:18;8.07;;;5.10;;
6111;SDS011;3086;48.802;9.394;2022-10-04T05:47:46;8.27;;;4.80;;
6111;SDS011;3086;48.802;9.394;2022-10-04T05:51:13;10.00;;;5.10;;
6111;SDS011;3086;48.802;9.394;2022-10-04T05:54:38;9.77;;;4.93;;
6111;SDS011;3086;48.802;9.394;2022-10-04T05:58:08;6.47;;;5.27;;
6111;SDS011;3086;48.802;9.394;2022-10-04T06:01:40;7.60;;;4.77;;
6111;SDS011;3086;48.802;9.394;2022-10-04T06:05:10;11.83;;;5.70;;
6111;SDS011;3086;48.802;9.394;2022-10-04T06:08:38;7.37;;;4.93;;
6111;SDS011;3086;48.802;9.394;2022-10-04T06:12:05;10.90;;;4.53;;
6111;SDS011;3086;48.802;9.394;2022-10-04T06:15:43;8.50;;;4.63;;
6111;SDS011;3086;48.802;9.394;2022-10-04T06:19:17;6.17;;;5.30;;
6111;SDS011;3086;48.802;9.394;2022-10-04T06:22:54;8.53;;;6.57;;
6111;SDS011;3086;48.802;9.394;2022-10-04T06:26:19;6.87;;;4.60;;
6111;SDS011;3086;48.802;9.394;2022-10-04T06:29:45;8.07;;;5.50;;
6111;SDS011;3086;48.802;9.394;2022-10-04T06:33:19;7.43;;;5.30;;
6111;SDS011;3086;48.802;9.394;2022-10-04T06:36:52;8.07;;;5.53;;
6111;SDS011;3086;48.802;9.394;2022-10-04T06:44:16;5.57;;;5.00;;
6111;SDS011;3086;48.802;9.394;2022-10-04T06:47:52;8.33;;;7.53;;
6111;SDS011;3086;48.802;9.394;2022-10-04T06:51:35;10.50;;;9.37;;
6111;SDS011;3086;48.802;9.394;2022-10-04T06:55:07;7.57;;;5.57;;
6111;SDS011;3086;48.802;9.394;2022-10-04T06:58:43;8.60;;;6.33;;
6111;SDS011;3086;48.802;9.394;2022-10-04T07:02:13;6.53;;;5.47;;
6111;SDS011;3086;48.802;9.394;2022-10-04T07:05:38;9.27;;;6.10;;
6111;SDS011;3086;48.802;9.394;2022-10-04T07:09:05;6.27;;;5.67;;
6111;SDS011;3086;48.802;9.394;2022-10-04T07:12:37;8.50;;;5.97;;
6111;SDS011;3086;48.802;9.394;2022-10-04T07:16:02;8.00;;;5.83;;
6111;SDS011;3086;48.802;9.394;2022-10-04T07:19:27;6.40;;;5.73;;
6111;SDS011;3086;48.802;9.394;2022-10-04T07:22:52;6.80;;;5.70;;
6111;SDS011;3086;48.802;9.394;2022-10-04T07:26:21;8.93;;;8.20;;
6111;SDS011;3086;48.802;9.394;2022-10-04T07:29:45;9.93;;;6.90;;
6111;SDS011;3086;48.802;9.394;2022-10-04T07:33:15;7.57;;;6.00;;
6111;SDS011;3086;48.802;9.394;2022-10-04T07:36:40;7.27;;;5.03;;
6111;SDS011;3086;48.802;9.394;2022-10-04T07:40:05;7.90;;;5.27;;
6111;SDS011;3086;48.802;9.394;2022-10-04T07:43:31;7.73;;;5.90;;
6111;SDS011;3086;48.802;9.394;2022-10-04T07:46:56;8.33;;;5.57;;
6111;SDS011;3086;48.802;9.394;2022-10-04T07:50:22;11.43;;;5.83;;
6111;SDS011;3086;48.802;9.394;2022-10-04T07:53:45;11.33;;;6.27;;
6111;SDS011;3086;48.802;9.394;2022-10-04T07:57:14;9.43;;;5.73;;
6111;SDS011;3086;48.802;9.394;2022-10-04T08:00:43;7.07;;;6.00;;
6111;SDS011;3086;48.802;9.394;2022-10-04T08:04:13;9.13;;;4.90;;
6111;SDS011;3086;48.802;9.394;2022-10-04T08:07:54;6.70;;;4.63;;
6111;SDS011;3086;48.802;9.394;2022-10-04T08:11:23;6.70;;;5.13;;
6111;SDS011;3086;48.802;9.394;2022-10-04T08:14:53;7.90;;;5.60;;
6111;SDS011;3086;48.802;9.394;2022-10-04T08:18:21;8.17;;;5.87;;
6111;SDS011;3086;48.802;9.394;2022-10-04T08:21:51;7.83;;;6.33;;
6111;SDS011;3086;48.802;9.394;2022-10-04T08:25:20;8.90;;;6.23;;
6111;SDS011;3086;48.802;9.394;2022-10-04T08:28:47;6.17;;;5.53;;
6111;SDS011;3086;48.802;9.394;2022-10-04T08:32:30;8.20;;;5.17;;
6111;SDS011;3086;48.802;9.394;2022-10-04T08:36:01;7.83;;;5.00;;
6111;SDS011;3086;48.802;9.394;2022-10-04T08:39:34;8.20;;;4.90;;
6111;SDS011;3086;48.802;9.394;2022-10-04T08:43:15;9.87;;;4.70;;
6111;SDS011;3086;48.802;9.394;2022-10-04T08:54:39;6.90;;;5.30;;
6111;SDS011;3086;48.802;9.394;2022-10-04T09:02:25;5.80;;;4.33;;
6111;SDS011;3086;48.802;9.394;2022-10-04T09:06:08;6.70;;;3.80;;
6111;SDS011;3086;48.802;9.394;2022-10-04T09:09:55;7.30;;;3.17;;
6111;SDS011;3086;48.802;9.394;2022-10-04T09:13:37;7.20;;;3.23;;
6111;SDS011;3086;48.802;9.394;2022-10-04T09:17:04;6.77;;;3.70;;
6111;SDS011;3086;48.802;9.394;2022-10-04T09:20:45;3.93;;;3.33;;
6111;SDS011;3086;48.802;9.394;2022-10-04T09:28:18;7.30;;;5.70;;
6111;SDS011;3086;48.802;9.394;2022-10-04T09:35:52;7.20;;;3.57;;
6111;SDS011;3086;48.802;9.394;2022-10-04T09:39:24;7.17;;;3.20;;
6111;SDS011;3086;48.802;9.394;2022-10-04T09:43:00;6.40;;;3.40;;
6111;SDS011;3086;48.802;9.394;2022-10-04T09:46:34;6.73;;;3.00;;
6111;SDS011;3086;48.802;9.394;2022-10-04T09:54:13;5.60;;;2.90;;
6111;SDS011;3086;48.802;9.394;2022-10-04T09:57:50;3.43;;;2.33;;
6111;SDS011;3086;48.802;9.394;2022-10-04T10:01:19;3.50;;;2.30;;
6111;SDS011;3086;48.802;9.394;2022-10-04T10:04:49;3.80;;;2.70;;
6111;SDS011;3086;48.802;9.394;2022-10-04T10:08:14;5.67;;;3.00;;
6111;SDS011;3086;48.802;9.394;2022-10-04T10:11:42;5.87;;;3.70;;
6111;SDS011;3086;48.802;9.394;2022-10-04T10:15:27;2.97;;;2.40;;
6111;SDS011;3086;48.802;9.394;2022-10-04T10:18:55;5.50;;;2.60;;
6111;SDS011;3086;48.802;9.394;2022-10-04T10:22:46;8.13;;;4.30;;
6111;SDS011;3086;48.802;9.394;2022-10-04T10:26:21;6.23;;;3.60;;
6111;SDS011;3086;48.802;9.394;2022-10-04T10:30:02;4.60;;;2.90;;
6111;SDS011;3086;48.802;9.394;2022-10-04T10:33:33;3.77;;;2.40;;
6111;SDS011;3086;48.802;9.394;2022-10-04T10:37:05;5.13;;;3.27;;
6111;SDS011;3086;48.802;9.394;2022-10-04T10:44:30;3.53;;;2.50;;
6111;SDS011;3086;48.802;9.394;2022-10-04T10:47:58;4.07;;;2.30;;
6111;SDS011;3086;48.802;9.394;2022-10-04T10:51:27;6.83;;;2.80;;
6111;SDS011;3086;48.802;9.394;2022-10-04T10:55:10;5.63;;;2.90;;
6111;SDS011;3086;48.802;9.394;2022-10-04T10:58:48;5.57;;;2.90;;
6111;SDS011;3086;48.802;9.394;2022-10-04T11:02:35;5.87;;;2.33;;
6111;SDS011;3086;48.802;9.394;2022-10-04T11:14:37;5.73;;;2.40;;
6111;SDS011;3086;48.802;9.394;2022-10-04T11:18:12;2.30;;;1.80;;
6111;SDS011;3086;48.802;9.394;2022-10-04T11:25:43;7.13;;;2.30;;
6111;SDS011;3086;48.802;9.394;2022-10-04T11:29:14;7.33;;;2.50;;
6111;SDS011;3086;48.802;9.394;2022-10-04T11:36:50;6.13;;;2.40;;
6111;SDS011;3086;48.802;9.394;2022-10-04T11:40:27;2.60;;;2.17;;
6111;SDS011;3086;48.802;9.394;2022-10-04T11:47:47;3.57;;;2.50;;
6111;SDS011;3086;48.802;9.394;2022-10-04T11:51:29;4.50;;;2.27;;
6111;SDS011;3086;48.802;9.394;2022-10-04T11:59:09;2.23;;;1.90;;
6111;SDS011;3086;48.802;9.394;2022-10-04T12:02:52;2.27;;;2.10;;
6111;SDS011;3086;48.802;9.394;2022-10-04T12:06:19;2.47;;;2.03;;
6111;SDS011;3086;48.802;9.394;2022-10-04T12:09:52;4.13;;;2.00;;
6111;SDS011;3086;48.802;9.394;2022-10-04T12:13:25;4.10;;;2.40;;
6111;SDS011;3086;48.802;9.394;2022-10-04T12:21:32;7.13;;;2.70;;
6111;SDS011;3086;48.802;9.394;2022-10-04T12:29:11;4.07;;;2.80;;
6111;SDS011;3086;48.802;9.394;2022-10-04T12:32:56;4.53;;;2.50;;
6111;SDS011;3086;48.802;9.394;2022-10-04T12:36:32;3.33;;;2.40;;
6111;SDS011;3086;48.802;9.394;2022-10-04T12:43:43;5.43;;;2.33;;
6111;SDS011;3086;48.802;9.394;2022-10-04T12:47:31;4.13;;;2.53;;
6111;SDS011;3086;48.802;9.394;2022-10-04T12:51:10;3.27;;;2.10;;
6111;SDS011;3086;48.802;9.394;2022-10-04T12:54:43;4.80;;;2.30;;
6111;SDS011;3086;48.802;9.394;2022-10-04T12:58:06;7.07;;;2.50;;
6111;SDS011;3086;48.802;9.394;2022-10-04T13:01:35;7.33;;;2.33;;
6111;SDS011;3086;48.802;9.394;2022-10-04T13:05:02;4.03;;;2.30;;
6111;SDS011;3086;48.802;9.394;2022-10-04T13:08:34;3.80;;;2.00;;
6111;SDS011;3086;48.802;9.394;2022-10-04T13:12:06;3.03;;;1.90;;
6111;SDS011;3086;48.802;9.394;2022-10-04T13:15:33;3.33;;;2.10;;
6111;SDS011;3086;48.802;9.394;2022-10-04T13:19:00;3.23;;;2.57;;
6111;SDS011;3086;48.802;9.394;2022-10-04T13:26:10;2.03;;;1.80;;
6111;SDS011;3086;48.802;9.394;2022-10-04T13:29:50;4.57;;;1.83;;
6111;SDS011;3086;48.802;9.394;2022-10-04T13:33:21;2.73;;;2.00;;
6111;SDS011;3086;48.802;9.394;2022-10-04T13:36:52;4.87;;;2.07;;
6111;SDS011;3086;48.802;9.394;2022-10-04T13:40:28;3.10;;;2.30;;
6111;SDS011;3086;48.802;9.394;2022-10-04T13:44:05;4.67;;;2.00;;
6111;SDS011;3086;48.802;9.394;2022-10-04T13:47:42;3.00;;;1.90;;
6111;SDS011;3086;48.802;9.394;2022-10-04T13:55:37;3.67;;;1.83;;
6111;SDS011;3086;48.802;9.394;2022-10-04T13:59:22;4.57;;;2.50;;
6111;SDS011;3086;48.802;9.394;2022-10-04T14:02:54;3.50;;;2.30;;
6111;SDS011;3086;48.802;9.394;2022-10-04T14:06:49;3.87;;;1.87;;
6111;SDS011;3086;48.802;9.394;2022-10-04T14:10:22;2.83;;;2.07;;
6111;SDS011;3086;48.802;9.394;2022-10-04T14:13:58;4.33;;;2.00;;
6111;SDS011;3086;48.802;9.394;2022-10-04T14:17:45;4.77;;;2.17;;
6111;SDS011;3086;48.802;9.394;2022-10-04T14:21:35;3.33;;;1.80;;
6111;SDS011;3086;48.802;9.394;2022-10-04T14:33:12;2.40;;;1.83;;
6111;SDS011;3086;48.802;9.394;2022-10-04T14:36:45;2.10;;;1.90;;
6111;SDS011;3086;48.802;9.394;2022-10-04T14:40:19;4.03;;;1.70;;
6111;SDS011;3086;48.802;9.394;2022-10-04T14:51:38;4.17;;;2.07;;
6111;SDS011;3086;48.802;9.394;2022-10-04T14:55:14;2.37;;;1.80;;
6111;SDS011;3086;48.802;9.394;2022-10-04T14:58:51;2.53;;;1.90;;
6111;SDS011;3086;48.802;9.394;2022-10-04T15:02:27;2.17;;;1.80;;
6111;SDS011;3086;48.802;9.394;2022-10-04T15:06:10;5.00;;;1.73;;
6111;SDS011;3086;48.802;9.394;2022-10-04T15:09:49;1.97;;;1.80;;
6111;SDS011;3086;48.802;9.394;2022-10-04T15:13:17;4.60;;;1.83;;
6111;SDS011;3086;48.802;9.394;2022-10-04T15:16:44;4.00;;;1.90;;
6111;SDS011;3086;48.802;9.394;2022-10-04T15:20:13;3.37;;;1.90;;
6111;SDS011;3086;48.802;9.394;2022-10-04T15:23:41;2.63;;;1.80;;
6111;SDS011;3086;48.802;9.394;2022-10-04T15:30:59;2.67;;;2.00;;
6111;SDS011;3086;48.802;9.394;2022-10-04T15:34:24;4.23;;;1.90;;
6111;SDS011;3086;48.802;9.394;2022-10-04T15:37:54;2.57;;;2.23;;
6111;SDS011;3086;48.802;9.394;2022-10-04T15:41:23;2.07;;;1.73;;
6111;SDS011;3086;48.802;9.394;2022-10-04T15:44:53;5.70;;;2.00;;
6111;SDS011;3086;48.802;9.394;2022-10-04T15:48:43;3.33;;;2.27;;
6111;SDS011;3086;48.802;9.394;2022-10-04T15:52:38;2.60;;;2.00;;
6111;SDS011;3086;48.802;9.394;2022-10-04T15:56:20;2.87;;;2.10;;
6111;SDS011;3086;48.802;9.394;2022-10-04T15:59:47;2.37;;;1.90;;
6111;SDS011;3086;48.802;9.394;2022-10-04T16:03:17;2.93;;;1.90;;
6111;SDS011;3086;48.802;9.394;2022-10-04T16:06:48;4.87;;;2.00;;
6111;SDS011;3086;48.802;9.394;2022-10-04T16:10:15;4.37;;;2.37;;
6111;SDS011;3086;48.802;9.394;2022-10-04T16:13:45;3.00;;;1.80;;
6111;SDS011;3086;48.802;9.394;2022-10-04T16:17:25;2.30;;;1.97;;
6111;SDS011;3086;48.802;9.394;2022-10-04T16:20:55;3.70;;;2.47;;
6111;SDS011;3086;48.802;9.394;2022-10-04T16:24:39;3.63;;;2.70;;
6111;SDS011;3086;48.802;9.394;2022-10-04T16:28:06;5.27;;;2.43;;
6111;SDS011;3086;48.802;9.394;2022-10-04T16:31:46;4.77;;;2.90;;
6111;SDS011;3086;48.802;9.394;2022-10-04T16:35:14;5.03;;;2.63;;
6111;SDS011;3086;48.802;9.394;2022-10-04T16:38:44;4.77;;;2.90;;
6111;SDS011;3086;48.802;9.394;2022-10-04T16:42:25;4.00;;;3.60;;
6111;SDS011;3086;48.802;9.394;2022-10-04T16:46:02;3.87;;;2.97;;
6111;SDS011;3086;48.802;9.394;2022-10-04T16:49:32;5.00;;;3.17;;
6111;SDS011;3086;48.802;9.394;2022-10-04T16:53:14;7.60;;;3.30;;
6111;SDS011;3086;48.802;9.394;2022-10-04T17:00:32;9.13;;;3.40;;
6111;SDS011;3086;48.802;9.394;2022-10-04T17:03:57;4.90;;;3.27;;
6111;SDS011;3086;48.802;9.394;2022-10-04T17:07:28;3.90;;;3.30;;
6111;SDS011;3086;48.802;9.394;2022-10-04T17:11:03;4.10;;;3.07;;
6111;SDS011;3086;48.802;9.394;2022-10-04T17:18:30;4.40;;;3.53;;
6111;SDS011;3086;48.802;9.394;2022-10-04T17:22:01;9.23;;;3.77;;
6111;SDS011;3086;48.802;9.394;2022-10-04T17:25:34;6.80;;;3.73;;
6111;SDS011;3086;48.802;9.394;2022-10-04T17:29:03;5.73;;;3.27;;
6111;SDS011;3086;48.802;9.394;2022-10-04T17:32:38;4.83;;;3.40;;
6111;SDS011;3086;48.802;9.394;2022-10-04T17:36:11;5.70;;;4.50;;
6111;SDS011;3086;48.802;9.394;2022-10-04T17:39:40;5.90;;;3.97;;
6111;SDS011;3086;48.802;9.394;2022-10-04T17:43:10;5.10;;;4.00;;
6111;SDS011;3086;48.802;9.394;2022-10-04T17:46:37;6.70;;;3.67;;
6111;SDS011;3086;48.802;9.394;2022-10-04T17:50:02;5.37;;;4.03;;
6111;SDS011;3086;48.802;9.394;2022-10-04T17:53:44;5.33;;;4.23;;
6111;SDS011;3086;48.802;9.394;2022-10-04T17:57:26;7.97;;;4.40;;
6111;SDS011;3086;48.802;9.394;2022-10-04T18:00:56;4.23;;;3.90;;
6111;SDS011;3086;48.802;9.394;2022-10-04T18:04:20;3.80;;;3.50;;
6111;SDS011;3086;48.802;9.394;2022-10-04T18:07:46;4.53;;;3.53;;
6111;SDS011;3086;48.802;9.394;2022-10-04T18:11:14;5.07;;;3.27;;
6111;SDS011;3086;48.802;9.394;2022-10-04T18:14:45;4.13;;;3.13;;
6111;SDS011;3086;48.802;9.394;2022-10-04T18:18:17;3.73;;;3.20;;
6111;SDS011;3086;48.802;9.394;2022-10-04T18:21:46;4.57;;;3.93;;
6111;SDS011;3086;48.802;9.394;2022-10-04T18:25:11;4.23;;;3.70;;
6111;SDS011;3086;48.802;9.394;2022-10-04T18:28:34;6.33;;;3.60;;
6111;SDS011;3086;48.802;9.394;2022-10-04T18:31:56;5.97;;;3.73;;
6111;SDS011;3086;48.802;9.394;2022-10-04T18:35:22;3.93;;;3.50;;
6111;SDS011;3086;48.802;9.394;2022-10-04T18:38:57;3.90;;;3.30;;
6111;SDS011;3086;48.802;9.394;2022-10-04T18:42:24;4.43;;;3.10;;
6111;SDS011;3086;48.802;9.394;2022-10-04T18:45:58;4.17;;;3.10;;
6111;SDS011;3086;48.802;9.394;2022-10-04T18:49:22;4.10;;;2.93;;
6111;SDS011;3086;48.802;9.394;2022-10-04T18:52:49;4.37;;;3.00;;
6111;SDS011;3086;48.802;9.394;2022-10-04T18:56:16;4.10;;;3.30;;
6111;SDS011;3086;48.802;9.394;2022-10-04T18:59:41;4.60;;;3.20;;
6111;SDS011;3086;48.802;9.394;2022-10-04T19:03:26;4.10;;;3.60;;
6111;SDS011;3086;48.802;9.394;2022-10-04T19:06:53;7.00;;;4.23;;
6111;SDS011;3086;48.802;9.394;2022-10-04T19:10:24;7.90;;;4.50;;
6111;SDS011;3086;48.802;9.394;2022-10-04T19:13:48;4.80;;;4.27;;
6111;SDS011;3086;48.802;9.394;2022-10-04T19:17:15;8.57;;;4.97;;
6111;SDS011;3086;48.802;9.394;2022-10-04T19:20:39;6.03;;;5.43;;
6111;SDS011;3086;48.802;9.394;2022-10-04T19:24:08;5.40;;;4.90;;
6111;SDS011;3086;48.802;9.394;2022-10-04T19:27:47;8.23;;;5.30;;
6111;SDS011;3086;48.802;9.394;2022-10-04T19:31:11;6.10;;;4.67;;
6111;SDS011;3086;48.802;9.394;2022-10-04T19:34:38;8.23;;;4.83;;
6111;SDS011;3086;48.802;9.394;2022-10-04T19:38:10;7.00;;;4.63;;
6111;SDS011;3086;48.802;9.394;2022-10-04T19:41:44;6.33;;;4.87;;
6111;SDS011;3086;48.802;9.394;2022-10-04T19:45:16;11.27;;;5.10;;
6111;SDS011;3086;48.802;9.394;2022-10-04T19:48:46;5.47;;;4.80;;
6111;SDS011;3086;48.802;9.394;2022-10-04T19:52:14;5.70;;;4.47;;
6111;SDS011;3086;48.802;9.394;2022-10-04T19:55:42;6.40;;;5.37;;
6111;SDS011;3086;48.802;9.394;2022-10-04T19:59:10;6.60;;;5.10;;
6111;SDS011;3086;48.802;9.394;2022-10-04T20:02:37;6.30;;;4.67;;
6111;SDS011;3086;48.802;9.394;2022-10-04T20:05:59;4.87;;;3.97;;
6111;SDS011;3086;48.802;9.394;2022-10-04T20:09:24;7.63;;;4.33;;
6111;SDS011;3086;48.802;9.394;2022-10-04T20:13:04;10.30;;;4.60;;
6111;SDS011;3086;48.802;9.394;2022-10-04T20:24:47;15.40;;;5.33;;
6111;SDS011;3086;48.802;9.394;2022-10-04T20:28:10;5.00;;;4.57;;
6111;SDS011;3086;48.802;9.394;2022-10-04T20:32:02;6.43;;;4.40;;
6111;SDS011;3086;48.802;9.394;2022-10-04T20:43:24;6.43;;;4.60;;
6111;SDS011;3086;48.802;9.394;2022-10-04T20:46:50;6.63;;;4.40;;
6111;SDS011;3086;48.802;9.394;2022-10-04T20:50:13;4.80;;;4.23;;
6111;SDS011;3086;48.802;9.394;2022-10-04T20:53:57;7.00;;;4.83;;
6111;SDS011;3086;48.802;9.394;2022-10-04T20:57:21;4.97;;;4.57;;
6111;SDS011;3086;48.802;9.394;2022-10-04T21:00:49;6.90;;;4.10;;
6111;SDS011;3086;48.802;9.394;2022-10-04T21:05:40;5.13;;;4.43;;
6111;SDS011;3086;48.802;9.394;2022-10-04T21:09:01;6.43;;;5.33;;
6111;SDS011;3086;48.802;9.394;2022-10-04T21:12:25;5.63;;;4.60;;
6111;SDS011;3086;48.802;9.394;2022-10-04T21:15:53;7.50;;;4.80;;
6111;SDS011;3086;48.802;9.394;2022-10-04T21:19:28;5.60;;;4.43;;
6111;SDS011;3086;48.802;9.394;2022-10-04T21:23:12;6.93;;;4.60;;
6111;SDS011;3086;48.802;9.394;2022-10-04T21:26:37;6.40;;;4.23;;
6111;SDS011;3086;48.802;9.394;2022-10-04T21:29:59;5.33;;;4.50;;
6111;SDS011;3086;48.802;9.394;2022-10-04T21:33:20;11.60;;;4.67;;
6111;SDS011;3086;48.802;9.394;2022-10-04T21:36:42;8.27;;;4.77;;
6111;SDS011;3086;48.802;9.394;2022-10-04T21:40:06;5.83;;;5.07;;
6111;SDS011;3086;48.802;9.394;2022-10-04T21:43:28;7.37;;;4.53;;
6111;SDS011;3086;48.802;9.394;2022-10-04T21:46:50;5.57;;;5.07;;
6111;SDS011;3086;48.802;9.394;2022-10-04T21:50:11;8.00;;;5.17;;
6111;SDS011;3086;48.802;9.394;2022-10-04T21:53:33;8.20;;;5.03;;
6111;SDS011;3086;48.802;9.394;2022-10-04T21:56:56;7.87;;;5.37;;
6111;SDS011;3086;48.802;9.394;2022-10-04T22:00:17;6.90;;;5.23;;
6111;SDS011;3086;48.802;9.394;2022-10-04T22:03:40;6.83;;;5.10;;
6111;SDS011;3086;48.802;9.394;2022-10-04T22:07:01;5.63;;;4.83;;
6111;SDS011;3086;48.802;9.394;2022-10-04T22:10:23;5.93;;;5.00;;
6111;SDS011;3086;48.802;9.394;2022-10-04T22:13:46;4.87;;;4.47;;
6111;SDS011;3086;48.802;9.394;2022-10-04T22:17:08;5.40;;;4.37;;
6111;SDS011;3086;48.802;9.394;2022-10-04T22:20:29;6.03;;;4.73;;
6111;SDS011;3086;48.802;9.394;2022-10-04T22:23:51;7.13;;;4.60;;
6111;SDS011;3086;48.802;9.394;2022-10-04T22:27:12;5.20;;;4.70;;
6111;SDS011;3086;48.802;9.394;2022-10-04T22:30:36;7.07;;;5.03;;
6111;SDS011;3086;48.802;9.394;2022-10-04T22:33:57;6.00;;;4.80;;
6111;SDS011;3086;48.802;9.394;2022-10-04T22:37:20;5.20;;;4.50;;
6111;SDS011;3086;48.802;9.394;2022-10-04T22:40:43;8.83;;;4.93;;
6111;SDS011;3086;48.802;9.394;2022-10-04T22:44:06;6.10;;;4.80;;
6111;SDS011;3086;48.802;9.394;2022-10-04T22:47:33;6.80;;;4.50;;
6111;SDS011;3086;48.802;9.394;2022-10-04T22:50:55;6.00;;;4.90;;
6111;SDS011;3086;48.802;9.394;2022-10-04T22:54:17;6.13;;;4.60;;
6111;SDS011;3086;48.802;9.394;2022-10-04T22:57:39;7.47;;;5.17;;
6111;SDS011;3086;48.802;9.394;2022-10-04T23:01:02;5.00;;;4.60;;
6111;SDS011;3086;48.802;9.394;2022-10-04T23:04:29;7.10;;;5.00;;
6111;SDS011;3086;48.802;9.394;2022-10-04T23:07:51;11.07;;;5.60;;
6111;SDS011;3086;48.802;9.394;2022-10-04T23:11:12;5.27;;;4.77;;
6111;SDS011;3086;48.802;9.394;2022-10-04T23:14:34;6.27;;;4.90;;
6111;SDS011;3086;48.802;9.394;2022-10-04T23:17:57;6.27;;;4.47;;
6111;SDS011;3086;48.802;9.394;2022-10-04T23:21:21;5.50;;;4.60;;
6111;SDS011;3086;48.802;9.394;2022-10-04T23:24:43;5.87;;;5.17;;
6111;SDS011;3086;48.802;9.394;2022-10-04T23:28:10;6.97;;;4.97;;
6111;SDS011;3086;48.802;9.394;2022-10-04T23:31:32;4.83;;;4.23;;
6111;SDS011;3086;48.802;9.394;2022-10-04T23:34:56;6.70;;;4.90;;
6111;SDS011;3086;48.802;9.394;2022-10-04T23:38:20;9.53;;;5.33;;
6111;SDS011;3086;48.802;9.394;2022-10-04T23:41:43;5.20;;;4.73;;
6111;SDS011;3086;48.802;9.394;2022-10-04T23:45:09;5.73;;;4.90;;
6111;SDS011;3086;48.802;9.394;2022-10-04T23:48:34;8.33;;;5.20;;
6111;SDS011;3086;48.802;9.394;2022-10-04T23:51:56;5.03;;;4.53;;